Time;durP1;ratioP1;P1;durP2;ratioP2;P2;SDS_P1;SDS_P2;PMS_P1;PMS_P2;Temp;Humidity;BMP_temperature;BMP_pressure;BME280_temperature;BME280_humidity;BME280_pressure;Samples;Min_cycle;Max_cycle;Signal;HPM_P1;HPM_P2
2024/04/17 00:00:37;;;;;;;10.23;2.40;;;;;;;6.07;100.00;101158.97;5508735;26;20005;-38
2024/04/17 00:03:02;;;;;;;7.63;2.28;;;;;;;6.13;100.00;101160.03;5508204;26;19990;-38
2024/04/17 00:05:27;;;;;;;7.63;2.03;;;;;;;6.07;100.00;101158.97;5499192;26;19998;-38
2024/04/17 00:07:53;;;;;;;6.00;1.90;;;;;;;6.05;100.00;101160.16;5492684;26;20247;-39
2024/04/17 00:10:18;;;;;;;7.27;2.03;;;;;;;6.04;100.00;101155.81;5492582;26;20002;-38
2024/04/17 00:12:43;;;;;;;9.43;2.53;;;;;;;5.96;100.00;101156.81;5492501;26;19994;-38
2024/04/17 00:15:09;;;;;;;7.40;1.90;;;;;;;5.86;100.00;101141.00;5492861;26;19998;-38
2024/04/17 00:17:34;;;;;;;7.93;2.20;;;;;;;5.93;100.00;101152.63;5492277;26;20223;-37
2024/04/17 00:19:59;;;;;;;10.80;2.67;;;;;;;5.85;100.00;101139.31;5493207;26;19998;-39
2024/04/17 00:22:25;;;;;;;5.93;1.80;;;;;;;5.88;100.00;101146.16;5492821;26;20009;-38
2024/04/17 00:24:50;;;;;;;6.97;2.07;;;;;;;5.88;100.00;101148.84;5492488;26;19994;-38
2024/04/17 00:27:15;;;;;;;7.77;2.40;;;;;;;5.84;100.00;101152.94;5492576;26;20005;-39
2024/04/17 00:29:40;;;;;;;8.07;2.30;;;;;;;5.78;100.00;101151.84;5492046;26;20009;-39
2024/04/17 00:32:07;;;;;;;8.07;2.10;;;;;;;5.74;100.00;101147.88;5492343;26;19994;-39
2024/04/17 00:34:32;;;;;;;;;;;;;;;5.87;100.00;101156.06;5492856;26;20013;-39
2024/04/17 00:36:57;;;;;;;10.43;2.67;;;;;;;5.67;100.00;101144.31;5492039;26;20312;-39
2024/04/17 00:39:23;;;;;;;7.57;2.43;;;;;;;5.68;100.00;101157.53;5492260;26;20296;-39
2024/04/17 00:41:48;;;;;;;7.00;2.40;;;;;;;5.66;100.00;101151.53;5460131;26;20000;-39
2024/04/17 00:44:14;;;;;;;9.33;2.17;;;;;;;5.61;100.00;101156.66;5492200;26;19994;-40
2024/04/17 00:46:40;;;;;;;8.27;2.45;;;;;;;5.59;100.00;101152.47;5491885;26;20447;-39
2024/04/17 00:49:05;;;;;;;10.15;2.90;;;;;;;5.48;100.00;101142.25;5491799;26;19991;-39
2024/04/17 00:51:32;;;;;;;7.97;2.63;;;;;;;5.52;100.00;101155.09;5491608;26;20014;-39
2024/04/17 00:53:57;;;;;;;11.13;2.78;;;;;;;5.34;100.00;101136.75;5491814;26;19990;-39
2024/04/17 00:56:23;;;;;;;7.57;2.33;;;;;;;5.46;100.00;101146.97;5491648;26;19994;-38
2024/04/17 00:58:48;;;;;;;9.33;2.60;;;;;;;5.36;100.00;101149.94;5491973;26;20006;-39
2024/04/17 01:01:14;;;;;;;5.63;2.53;;;;;;;5.23;100.00;101128.38;5491986;26;19990;-39
2024/04/17 01:03:39;;;;;;;10.43;2.60;;;;;;;5.14;100.00;101124.97;5491926;26;19997;-39
2024/04/17 01:06:05;;;;;;;6.80;2.60;;;;;;;5.21;100.00;101136.59;5491570;26;19994;-39
2024/04/17 01:08:30;;;;;;;5.93;2.20;;;;;;;5.19;100.00;101143.16;5491838;26;19990;-39
2024/04/17 01:11:02;;;;;;;8.27;2.30;;;;;;;5.09;100.00;101146.97;5492069;26;19986;-38
2024/04/17 01:13:28;;;;;;;5.47;3.08;;;;;;;5.10;100.00;101139.75;5491696;26;20040;-38
2024/04/17 01:15:56;;;;;;;6.68;2.30;;;;;;;5.06;100.00;101143.84;5492130;26;20005;-38
2024/04/17 01:18:22;;;;;;;13.00;3.75;;;;;;;4.90;100.00;101140.34;5490660;26;20002;-38
2024/04/17 01:20:47;;;;;;;9.65;3.10;;;;;;;4.99;100.00;101146.44;5492136;26;19998;-39
2024/04/17 01:23:13;;;;;;;11.17;2.97;;;;;;;5.01;100.00;101143.56;5491502;26;20005;-39
2024/04/17 01:25:38;;;;;;;6.13;2.40;;;;;;;5.01;100.00;101136.34;5492280;26;20060;-39
2024/04/17 01:28:04;;;;;;;7.50;2.03;;;;;;;5.00;100.00;101144.59;5491159;26;20001;-39
2024/04/17 01:30:29;;;;;;;6.88;2.78;;;;;;;4.94;100.00;101138.13;5491504;26;20006;-39
2024/04/17 01:32:55;;;;;;;8.43;2.90;;;;;;;4.86;100.00;101133.69;5491325;26;20066;-39
2024/04/17 01:35:20;;;;;;;9.73;2.73;;;;;;;4.90;100.00;101136.84;5492062;26;20009;-39
2024/04/17 01:37:45;;;;;;;5.97;2.20;;;;;;;4.87;100.00;101131.84;5490748;26;20006;-39
2024/04/17 01:40:11;;;;;;;6.70;2.50;;;;;;;4.88;100.00;101134.34;5491712;26;20008;-39
2024/04/17 01:42:36;;;;;;;8.70;2.40;;;;;;;4.84;100.00;101126.88;5491083;26;20004;-39
2024/04/17 01:45:02;;;;;;;5.87;3.03;;;;;;;4.81;100.00;101130.72;5490984;26;19990;-39
2024/04/17 01:47:27;;;;;;;6.75;2.28;;;;;;;4.82;100.00;101127.03;5490564;26;20005;-39
2024/04/17 01:49:52;;;;;;;9.53;2.87;;;;;;;4.81;100.00;101141.47;5490924;26;20066;-39
2024/04/17 01:52:18;;;;;;;9.10;2.63;;;;;;;4.78;100.00;101133.81;5490614;26;19991;-39
2024/04/17 01:54:44;;;;;;;7.33;2.90;;;;;;;4.77;100.00;101123.25;5490826;26;20005;-39
2024/04/17 01:57:09;;;;;;;9.75;4.03;;;;;;;4.79;100.00;101138.13;5491238;26;19998;-38
2024/04/17 01:59:34;;;;;;;9.17;3.30;;;;;;;4.82;100.00;101135.06;5491194;26;19994;-38
2024/04/17 02:02:00;;;;;;;11.93;3.37;;;;;;;4.81;100.00;101133.41;5458955;26;20223;-38
2024/04/17 02:04:25;;;;;;;5.47;2.50;;;;;;;4.83;100.00;101128.72;5491123;26;19994;-39
2024/04/17 02:06:50;;;;;;;9.57;3.38;;;;;;;4.77;100.00;101123.25;5491053;26;20426;-39
2024/04/17 02:09:16;;;;;;;8.30;3.23;;;;;;;4.80;100.00;101123.72;5491262;26;19990;-39
2024/04/17 02:11:41;;;;;;;9.10;3.73;;;;;;;4.78;100.00;101141.84;5458878;26;20006;-39
2024/04/17 02:14:06;;;;;;;13.10;4.20;;;;;;;4.64;100.00;101124.75;5491098;26;19996;-39
2024/04/17 02:16:32;;;;;;;9.57;3.70;;;;;;;4.76;100.00;101133.16;5490718;26;19994;-39
2024/04/17 02:18:57;;;;;;;10.80;3.90;;;;;;;4.79;100.00;101138.13;5491455;26;20402;-39
2024/04/17 02:21:22;;;;;;;12.67;4.10;;;;;;;4.79;100.00;101137.31;5490799;26;20314;-39
2024/04/17 02:23:48;;;;;;;11.73;4.33;;;;;;;4.81;100.00;101135.28;5490797;26;20004;-39
2024/04/17 02:26:13;;;;;;;13.27;4.47;;;;;;;4.81;100.00;101136.09;5490382;26;20004;-38
2024/04/17 02:28:38;;;;;;;10.90;3.70;;;;;;;4.75;100.00;101128.81;5490276;26;19998;-39
2024/04/17 02:31:04;;;;;;;11.93;3.80;;;;;;;4.82;100.00;101140.44;5490920;26;20308;-38
2024/04/17 02:33:29;;;;;;;10.80;4.05;;;;;;;4.80;100.00;101145.16;5490875;26;19994;-38
2024/04/17 02:35:55;;;;;;;14.37;4.07;;;;;;;4.72;100.00;101128.34;5490845;26;20442;-38
2024/04/17 02:38:20;;;;;;;9.30;3.23;;;;;;;4.83;100.00;101144.78;5489878;26;20005;-39
2024/04/17 02:40:45;;;;;;;8.83;3.23;;;;;;;4.83;100.00;101150.16;5490421;26;20000;-38
2024/04/17 02:43:11;;;;;;;10.23;2.87;;;;;;;4.81;100.00;101141.47;5490045;26;19990;-38
2024/04/17 02:45:36;;;;;;;8.33;2.90;;;;;;;4.85;100.00;101145.44;5490181;26;20006;-38
2024/04/17 02:48:02;;;;;;;7.30;2.40;;;;;;;4.91;100.00;101146.53;5490046;26;20456;-39
2024/04/17 02:50:27;;;;;;;7.78;2.20;;;;;;;4.90;100.00;101139.50;5490249;26;19998;-38
2024/04/17 02:52:52;;;;;;;8.30;2.43;;;;;;;4.97;100.00;101139.59;5489823;26;19997;-39
2024/04/17 02:55:18;;;;;;;8.57;2.80;;;;;;;4.98;100.00;101134.06;5490353;26;20005;-38
2024/04/17 02:57:43;;;;;;;8.00;2.57;;;;;;;5.04;100.00;101138.66;5489795;26;20379;-38
2024/04/17 03:00:09;;;;;;;10.83;2.70;;;;;;;5.09;100.00;101138.94;5490395;26;19991;-38
2024/04/17 03:02:34;;;;;;;9.35;2.80;;;;;;;5.12;100.00;101132.34;5490036;26;19994;-38
2024/04/17 03:05:01;;;;;;;7.43;2.40;;;;;;;5.13;100.00;101134.03;5490678;26;20040;-39
2024/04/17 03:07:26;;;;;;;7.78;2.28;;;;;;;5.14;100.00;101133.84;5490146;26;20017;-38
2024/04/17 03:09:51;;;;;;;8.23;2.70;;;;;;;5.17;100.00;101137.97;5490581;26;19998;-38
2024/04/17 03:12:17;;;;;;;8.23;2.17;;;;;;;5.20;100.00;101131.41;5490796;26;20072;-38
2024/04/17 03:14:43;;;;;;;;;;;;;;;5.28;100.00;101134.81;5490437;26;20305;-38
2024/04/17 03:17:08;;;;;;;5.70;2.22;;;;;;;5.17;100.00;101124.56;5489820;26;19935;-38
2024/04/17 03:19:34;;;;;;;3.90;1.83;;;;;;;5.31;100.00;101130.91;5489764;26;19995;-38
2024/04/17 03:21:59;;;;;;;7.07;2.10;;;;;;;5.33;100.00;101134.25;5489433;26;19994;-39
2024/04/17 03:24:24;;;;;;;6.10;2.20;;;;;;;5.33;100.00;101127.03;5490441;26;20001;-38
2024/04/17 03:26:50;;;;;;;7.93;2.10;;;;;;;5.38;100.00;101131.84;5489865;26;20370;-38
2024/04/17 03:29:15;;;;;;;8.13;2.57;;;;;;;5.38;100.00;101140.72;5489921;26;19997;-38
2024/04/17 03:31:40;;;;;;;4.93;2.13;;;;;;;5.41;100.00;101147.53;5489210;26;20001;-38
2024/04/17 03:34:06;;;;;;;7.50;1.97;;;;;;;5.41;100.00;101151.03;5489548;26;20207;-38
2024/04/17 03:36:31;;;;;;;7.13;2.40;;;;;;;5.43;100.00;101151.69;5488823;26;20008;-39
2024/04/17 03:38:57;;;;;;;4.45;2.17;;;;;;;5.47;100.00;101154.00;5489412;26;19998;-39
2024/04/17 03:41:22;;;;;;;7.13;2.40;;;;;;;5.39;100.00;101145.03;5491697;26;20001;-39
2024/04/17 03:43:47;;;;;;;7.63;2.10;;;;;;;5.39;100.00;101149.59;5492770;26;20212;-39
2024/04/17 03:46:13;;;;;;;5.40;2.03;;;;;;;5.48;100.00;101167.22;5492824;26;20609;-38
2024/04/17 03:48:38;;;;;;;4.67;1.90;;;;;;;5.49;100.00;101162.69;5492694;26;20001;-38
2024/04/17 03:51:04;;;;;;;6.33;2.50;;;;;;;5.49;100.00;101170.75;5493420;26;20005;-38
2024/04/17 03:53:29;;;;;;;4.97;1.80;;;;;;;5.45;100.00;101164.91;5492362;26;20438;-39
2024/04/17 03:55:54;;;;;;;7.27;2.30;;;;;;;5.46;100.00;101169.25;5493519;26;19990;-39
2024/04/17 03:58:20;;;;;;;5.67;2.00;;;;;;;5.46;100.00;101176.47;5492677;26;19998;-39
2024/04/17 04:00:47;;;;;;;5.50;2.00;;;;;;;5.44;100.00;101179.34;5492665;26;19990;-38
2024/04/17 04:03:12;;;;;;;5.43;2.38;;;;;;;5.36;100.00;101172.22;5492786;26;19991;-38
2024/04/17 04:05:42;;;;;;;4.43;1.63;;;;;;;5.37;100.00;101179.28;5492966;26;20307;-39
2024/04/17 04:08:07;;;;;;;4.72;2.25;;;;;;;5.34;100.00;101182.34;5492681;26;20062;-39
2024/04/17 04:10:32;;;;;;;4.07;1.33;;;;;;;5.35;100.00;101175.13;5492416;26;19990;-38
2024/04/17 04:12:58;;;;;;;4.03;1.40;;;;;;;5.34;100.00;101179.66;5492601;26;20066;-39
2024/04/17 04:15:23;;;;;;;2.77;1.20;;;;;;;5.25;100.00;101170.06;5492984;26;20471;-39
2024/04/17 04:17:48;;;;;;;5.30;1.93;;;;;;;5.31;100.00;101181.88;5492272;26;20064;-39
2024/04/17 04:20:14;;;;;;;2.97;1.27;;;;;;;5.19;100.00;101161.94;5492560;26;20433;-38
2024/04/17 04:22:39;;;;;;;1.77;1.13;;;;;;;5.27;100.00;101169.84;5491886;26;19986;-38
2024/04/17 04:25:05;;;;;;;2.13;1.03;;;;;;;5.21;100.00;101163.41;5492814;26;19998;-38
2024/04/17 04:27:30;;;;;;;2.50;1.25;;;;;;;5.31;100.00;101173.81;5491737;26;20002;-39
2024/04/17 04:29:55;;;;;;;2.20;1.00;;;;;;;5.30;100.00;101175.69;5492710;26;20005;-38
2024/04/17 04:32:21;;;;;;;3.03;1.00;;;;;;;5.34;100.00;101171.59;5491965;26;19994;-39
2024/04/17 04:34:46;;;;;;;3.57;1.03;;;;;;;5.35;100.00;101173.25;5492624;26;20002;-38
2024/04/17 04:37:11;;;;;;;2.70;1.20;;;;;;;5.30;100.00;101158.75;5491562;26;19990;-39
2024/04/17 04:39:37;;;;;;;2.77;1.17;;;;;;;5.40;100.00;101183.44;5492382;26;20116;-38
2024/04/17 04:42:03;;;;;;;3.57;1.20;;;;;;;5.43;100.00;101175.84;5491397;26;20005;-38
2024/04/17 04:44:29;;;;;;;2.53;1.20;;;;;;;5.34;100.00;101160.06;5491921;26;20479;-38
2024/04/17 04:46:56;;;;;;;3.92;1.10;;;;;;;5.47;100.00;101172.78;5491675;26;19994;-39
2024/04/17 04:49:22;;;;;;;2.58;1.00;;;;;;;5.51;100.00;101187.47;5491585;26;19994;-38
2024/04/17 04:51:47;;;;;;;;;;;;;;;5.59;100.00;101182.81;5492144;26;20037;-39
2024/04/17 04:54:13;;;;;;;3.70;1.10;;;;;;;5.54;100.00;101177.19;5492192;26;19923;-38
2024/04/17 04:56:38;;;;;;;1.50;1.00;;;;;;;5.59;100.00;101182.00;5491971;26;20055;-39
2024/04/17 04:59:03;;;;;;;2.23;0.80;;;;;;;5.58;100.00;101189.22;5492468;26;19998;-38
2024/04/17 05:01:29;;;;;;;3.07;0.90;;;;;;;5.50;100.00;101175.06;5491815;26;20426;-39
2024/04/17 05:03:54;;;;;;;2.57;1.50;;;;;;;5.60;100.00;101179.09;5491975;26;20067;-39
2024/04/17 05:06:19;;;;;;;3.60;1.07;;;;;;;5.60;100.00;101178.28;5491814;26;19990;-38
2024/04/17 05:08:45;;;;;;;3.90;1.57;;;;;;;5.67;100.00;101184.56;5492368;26;20002;-38
2024/04/17 05:11:11;;;;;;;2.87;1.10;;;;;;;5.69;100.00;101185.19;5491733;26;19994;-38
2024/04/17 05:13:37;;;;;;;2.75;1.20;;;;;;;5.68;100.00;101186.22;5491550;26;20299;-38
2024/04/17 05:16:03;;;;;;;2.17;1.30;;;;;;;5.66;100.00;101182.88;5491721;26;20012;-38
2024/04/17 05:18:28;;;;;;;3.20;1.40;;;;;;;5.61;100.00;101169.19;5491225;26;20061;-38
2024/04/17 05:20:54;;;;;;;2.47;1.40;;;;;;;5.74;100.00;101185.44;5491931;26;19994;-38
2024/04/17 05:23:20;;;;;;;3.50;1.50;;;;;;;5.74;100.00;101181.94;5491987;26;19990;-38
2024/04/17 05:25:45;;;;;;;4.75;1.50;;;;;;;5.72;100.00;101176.78;5492125;26;20292;-38
2024/04/17 05:28:10;;;;;;;2.80;1.40;;;;;;;5.79;100.00;101177.66;5491818;26;19990;-39
2024/04/17 05:30:36;;;;;;;3.70;1.70;;;;;;;5.79;100.00;101176.81;5491426;26;20348;-39
2024/04/17 05:33:01;;;;;;;5.30;1.90;;;;;;;5.79;100.00;101174.97;5491365;26;20434;-39
2024/04/17 05:35:26;;;;;;;3.83;1.83;;;;;;;5.79;100.00;101183.03;5491247;26;20091;-38
2024/04/17 05:37:52;;;;;;;2.50;1.60;;;;;;;5.78;100.00;101183.22;5491037;26;20070;-39
2024/04/17 05:40:17;;;;;;;4.68;1.88;;;;;;;5.78;100.00;101173.31;5491625;26;20001;-38
2024/04/17 05:42:42;;;;;;;6.00;2.60;;;;;;;5.77;100.00;101179.72;5491314;26;19994;-38
2024/04/17 05:45:08;;;;;;;3.23;1.60;;;;;;;5.76;100.00;101180.75;5491273;26;20004;-38
2024/04/17 05:47:33;;;;;;;2.67;1.80;;;;;;;5.76;100.00;101174.50;5490982;26;20005;-38
2024/04/17 05:50:00;;;;;;;3.30;1.80;;;;;;;5.76;100.00;101172.69;5491192;26;19990;-38
2024/04/17 05:52:25;;;;;;;3.03;1.55;;;;;;;5.71;100.00;101175.13;5490579;26;20001;-38
2024/04/17 05:54:50;;;;;;;5.07;1.87;;;;;;;5.69;100.00;101177.13;5490736;26;19990;-39
2024/04/17 05:57:16;;;;;;;4.30;1.83;;;;;;;5.72;100.00;101179.44;5490864;26;19994;-38
2024/04/17 05:59:41;;;;;;;3.90;1.90;;;;;;;5.65;100.00;101171.31;5491373;26;19994;-38
2024/04/17 06:02:06;;;;;;;3.73;1.70;;;;;;;5.70;100.00;101186.84;5490399;26;19990;-38
2024/04/17 06:04:32;;;;;;;3.28;1.70;;;;;;;5.68;100.00;101188.91;5489926;26;20001;-39
2024/04/17 06:06:57;;;;;;;4.67;1.50;;;;;;;5.68;100.00;101186.22;5490691;26;20376;-39
2024/04/17 06:09:24;;;;;;;3.07;1.57;;;;;;;5.66;100.00;101181.06;5490404;26;20219;-39
2024/04/17 06:11:49;;;;;;;4.53;2.10;;;;;;;5.69;100.00;101187.88;5490685;26;19994;-38
2024/04/17 06:14:15;;;;;;;3.38;1.92;;;;;;;5.77;100.00;101184.25;5490656;26;20016;-38
2024/04/17 06:16:40;;;;;;;6.00;1.80;;;;;;;5.81;100.00;101183.69;5490229;26;19990;-38
2024/04/17 06:19:05;;;;;;;3.27;1.63;;;;;;;5.87;100.00;101190.13;5490462;26;20006;-38
2024/04/17 06:21:31;;;;;;;3.63;1.40;;;;;;;5.94;100.00;101189.19;5490822;26;20062;-39
2024/04/17 06:23:56;;;;;;;3.05;1.65;;;;;;;6.04;100.00;101190.72;5490306;26;19990;-39
2024/04/17 06:26:22;;;;;;;4.57;1.80;;;;;;;6.07;100.00;101184.97;5490019;26;20062;-37
2024/04/17 06:28:47;;;;;;;5.63;2.10;;;;;;;6.21;100.00;101186.75;5490959;26;19995;-38
2024/04/17 06:31:12;;;;;;;4.07;1.77;;;;;;;6.33;100.00;101192.41;5489995;26;19990;-39
2024/04/17 06:33:38;;;;;;;5.33;1.80;;;;;;;6.43;100.00;101193.72;5490110;26;20001;-40
2024/04/17 06:36:03;;;;;;;5.07;2.13;;;;;;;6.53;100.00;101190.69;5489804;26;20267;-38
2024/04/17 06:38:29;;;;;;;4.82;1.90;;;;;;;6.64;100.00;101187.50;5490527;26;19990;-39
2024/04/17 06:40:57;;;;;;;4.73;2.50;;;;;;;6.71;100.00;101192.91;5490449;26;20326;-39
2024/04/17 06:43:23;;;;;;;4.78;2.00;;;;;;;6.76;100.00;101190.44;5490297;26;20520;-38
2024/04/17 06:45:48;;;;;;;7.72;2.20;;;;;;;6.84;100.00;101181.41;5490637;26;19994;-39
2024/04/17 06:48:13;;;;;;;4.63;1.83;;;;;;;6.95;100.00;101194.28;5489783;26;20473;-38
2024/04/17 06:50:39;;;;;;;5.63;1.90;;;;;;;6.94;100.00;101185.41;5490042;26;20204;-38
2024/04/17 06:53:04;;;;;;;5.43;2.00;;;;;;;7.01;100.00;101189.97;5489522;26;20008;-42
2024/04/17 06:55:30;;;;;;;4.17;1.63;;;;;;;7.09;100.00;101189.81;5490924;26;20006;-38
2024/04/17 06:57:55;;;;;;;5.43;1.60;;;;;;;7.19;100.00;101187.59;5490140;26;19994;-38
2024/04/17 07:00:20;;;;;;;5.40;1.90;;;;;;;7.27;100.00;101187.41;5490073;26;20005;-39
2024/04/17 07:02:46;;;;;;;6.47;1.92;;;;;;;7.34;100.00;101182.06;5489829;26;20001;-38
2024/04/17 07:05:12;;;;;;;4.30;1.57;;;;;;;7.38;100.00;101188.69;5490628;26;20010;-38
2024/04/17 07:07:37;;;;;;;6.38;1.83;;;;;;;7.38;100.00;101186.84;5489889;26;20711;-39
2024/04/17 07:10:03;;;;;;;6.68;1.80;;;;;;;7.46;100.00;101178.56;5490668;26;20426;-39
2024/04/17 07:12:28;;;;;;;9.18;1.98;;;;;;;7.48;100.00;101178.38;5490045;26;19994;-39
2024/04/17 07:14:54;;;;;;;6.90;1.80;;;;;;;7.60;100.00;101186.69;5490931;26;19998;-39
2024/04/17 07:17:20;;;;;;;4.15;1.70;;;;;;;7.62;100.00;101185.47;5493161;26;20326;-38
2024/04/17 07:19:45;;;;;;;8.20;2.07;;;;;;;7.67;100.00;101182.16;5493784;26;20042;-39
2024/04/17 07:22:10;;;;;;;9.87;2.43;;;;;;;7.69;100.00;101172.00;5492895;26;20551;-39
2024/04/17 07:24:36;;;;;;;7.03;2.13;;;;;;;7.75;100.00;101173.88;5493398;26;20361;-39
2024/04/17 07:27:02;;;;;;;8.63;2.20;;;;;;;7.89;100.00;101166.66;5493577;26;20005;-39
2024/04/17 07:29:27;;;;;;;8.00;2.10;;;;;;;7.98;100.00;101178.88;5493718;26;20005;-38
2024/04/17 07:31:53;;;;;;;7.87;2.13;;;;;;;8.09;100.00;101169.38;5493230;26;20001;-39
2024/04/17 07:34:18;;;;;;;6.57;1.43;;;;;;;8.09;100.00;101175.56;5493456;26;19998;-39
2024/04/17 07:36:46;;;;;;;6.27;1.53;;;;;;;8.15;100.00;101179.31;5492487;26;20009;-40
2024/04/17 07:39:11;;;;;;;7.88;1.60;;;;;;;8.25;100.00;101179.75;5492738;26;20251;-39
2024/04/17 07:41:37;;;;;;;6.55;1.42;;;;;;;8.36;100.00;101181.84;5492833;26;19994;-39
2024/04/17 07:44:03;;;;;;;8.48;1.98;;;;;;;8.40;100.00;101174.19;5493000;26;20032;-39
2024/04/17 07:46:28;;;;;;;5.80;1.50;;;;;;;8.34;100.00;101172.25;5493032;26;19998;-39
2024/04/17 07:48:54;;;;;;;8.85;1.88;;;;;;;8.37;100.00;101177.28;5492991;26;20462;-39
2024/04/17 07:51:20;;;;;;;5.80;1.42;;;;;;;8.43;100.00;101177.25;5492294;26;20002;-39
2024/04/17 07:53:45;;;;;;;5.00;1.50;;;;;;;8.62;100.00;101172.06;5492337;26;20327;-39
2024/04/17 07:56:11;;;;;;;8.27;2.80;;;;;;;8.73;100.00;101177.63;5492856;26;20101;-39
2024/04/17 07:58:36;;;;;;;6.27;1.33;;;;;;;8.65;100.00;101177.03;5494006;26;20006;-39
2024/04/17 08:01:01;;;;;;;7.30;1.73;;;;;;;8.58;100.00;101168.13;5492911;26;19998;-39
2024/04/17 08:03:27;;;;;;;9.03;1.97;;;;;;;8.55;100.00;101182.03;5493366;26;20005;-38
2024/04/17 08:05:52;;;;;;;6.15;1.63;;;;;;;8.50;100.00;101186.19;5492413;26;20327;-38
2024/04/17 08:08:18;;;;;;;9.27;1.60;;;;;;;8.39;100.00;101180.56;5492874;26;19994;-39
2024/04/17 08:10:43;;;;;;;7.30;1.60;;;;;;;8.38;100.00;101179.75;5492682;26;19997;-38
2024/04/17 08:13:12;;;;;;;6.10;1.58;;;;;;;8.43;100.00;101177.25;5492576;26;20438;-39
2024/04/17 08:15:54;;;;;;;3.90;1.33;;;;;;;8.61;100.00;101178.50;5492896;26;20008;-39
2024/04/17 08:18:20;;;;;;;4.85;1.20;;;;;;;8.72;100.00;101172.44;5492197;26;20445;-38
2024/04/17 08:20:45;;;;;;;7.78;1.75;;;;;;;8.80;100.00;101183.03;5492600;26;20005;-38
2024/04/17 08:23:11;;;;;;;6.18;1.88;;;;;;;8.89;100.00;101181.75;5492230;26;19994;-39
2024/04/17 08:25:39;;;;;;;5.88;1.48;;;;;;;8.84;100.00;101180.75;5491901;26;19991;-39
2024/04/17 08:28:04;;;;;;;7.68;1.67;;;;;;;8.97;100.00;101186.06;5492351;26;20426;-38
2024/04/17 08:30:30;;;;;;;5.50;1.42;;;;;;;9.10;100.00;101186.03;5492654;26;20001;-39
2024/04/17 08:32:55;;;;;;;4.30;1.30;;;;;;;9.13;100.00;101179.41;5492380;26;19998;-38
2024/04/17 08:35:21;;;;;;;6.87;1.43;;;;;;;9.24;100.00;101189.53;5492478;26;19998;-39
2024/04/17 08:37:46;;;;;;;8.60;1.67;;;;;;;9.33;100.00;101188.25;5492021;26;20282;-39
2024/04/17 08:40:12;;;;;;;7.57;1.50;;;;;;;9.24;100.00;101186.84;5491987;26;19994;-39
2024/04/17 08:42:41;;;;;;;5.82;1.45;;;;;;;9.35;100.00;101188.84;5491750;26;20346;-38
2024/04/17 08:45:11;;;;;;;6.95;1.35;;;;;;;9.30;100.00;101183.28;5491909;26;20423;-38
2024/04/17 08:47:39;;;;;;;5.57;1.30;;;;;;;9.31;100.00;101181.41;5491825;26;20066;-39
2024/04/17 08:50:05;;;;;;;6.70;1.30;;;;;;;9.21;100.00;101188.06;5492085;26;19998;-37
2024/04/17 08:52:33;;;;;;;5.93;1.30;;;;;;;9.06;100.00;101181.28;5491685;26;19994;-39
2024/04/17 08:54:58;;;;;;;5.38;1.40;;;;;;;8.94;100.00;101173.03;5491647;26;19990;-38
2024/04/17 08:57:24;;;;;;;6.43;1.40;;;;;;;8.90;100.00;101180.72;5492582;26;20446;-39
2024/04/17 08:59:50;;;;;;;5.22;1.50;;;;;;;8.98;100.00;101187.75;5492310;26;19991;-39
2024/04/17 09:02:16;;;;;;;5.03;1.33;;;;;;;9.30;100.00;101194.06;5491663;26;20063;-39
2024/04/17 09:04:46;;;;;;;4.57;1.00;;;;;;;9.21;100.00;101198.03;5492474;26;20046;-39
2024/04/17 09:07:12;;;;;;;0.47;0.30;;;;;;;8.80;100.00;101236.97;5491515;26;19994;-37
2024/04/17 09:09:38;;;;;;;0.85;0.30;;;;;;;8.40;100.00;101236.16;5492486;26;20009;-39
2024/04/17 09:12:06;;;;;;;0.90;0.40;;;;;;;7.98;100.00;101244.34;5491781;26;19998;-39
2024/04/17 09:14:31;;;;;;;1.65;0.45;;;;;;;7.69;100.00;101240.13;5491666;26;20002;-38
2024/04/17 09:16:57;;;;;;;1.63;0.50;;;;;;;7.52;100.00;101241.53;5492054;26;20066;-39
2024/04/17 09:19:22;;;;;;;1.83;0.40;;;;;;;7.21;100.00;101244.69;5492410;26;20004;-39
2024/04/17 09:21:47;;;;;;;2.60;0.40;;;;;;;7.13;100.00;101239.50;5491910;26;20415;-39
2024/04/17 09:24:13;;;;;;;1.63;0.53;;;;;;;7.11;100.00;101245.03;5492089;26;20437;-38
2024/04/17 09:26:40;;;;;;;1.57;0.50;;;;;;;6.96;100.00;101253.22;5491265;26;19990;-39
2024/04/17 09:29:05;;;;;;;1.17;0.40;;;;;;;6.88;100.00;101245.34;5491789;26;20248;-39
2024/04/17 09:31:31;;;;;;;1.55;0.50;;;;;;;6.93;100.00;101240.19;5491155;26;20008;-39
2024/04/17 09:33:59;;;;;;;1.27;0.50;;;;;;;6.96;100.00;101252.41;5492132;26;20064;-39
2024/04/17 09:36:24;;;;;;;1.35;0.60;;;;;;;6.76;100.00;101228.09;5490807;26;20067;-39
2024/04/17 09:38:50;;;;;;;0.90;0.40;;;;;;;6.86;100.00;101254.63;5490210;26;20380;-40
2024/04/17 09:41:15;;;;;;;2.57;0.60;;;;;;;6.83;100.00;101246.94;5491510;26;20442;-39
2024/04/17 09:43:45;;;;;;;1.53;0.50;;;;;;;6.71;100.00;101236.72;5490960;26;19995;-39
2024/04/17 09:46:14;;;;;;;1.58;0.50;;;;;;;6.54;100.00;101210.34;5490932;26;20256;-39
2024/04/17 09:48:41;;;;;;;1.25;0.57;;;;;;;6.63;100.00;101217.22;5490965;26;20031;-38
2024/04/17 09:51:08;;;;;;;1.52;0.43;;;;;;;6.69;100.00;101227.22;5491479;26;20471;-38
2024/04/17 09:53:41;;;;;;;1.23;0.50;;;;;;;6.73;100.00;101223.09;5490756;26;19990;-38
2024/04/17 09:56:12;;;;;;;0.98;0.50;;;;;;;6.81;100.00;101222.94;5490679;26;20519;-39
2024/04/17 09:58:38;;;;;;;1.63;0.38;;;;;;;6.94;100.00;101217.66;5491236;26;19998;-39
2024/04/17 10:01:08;;;;;;;0.80;0.40;;;;;;;7.00;100.00;101217.91;5490786;26;20450;-40
2024/04/17 10:03:36;;;;;;;0.55;0.30;;;;;;;7.10;100.00;101202.22;5490905;26;19994;-38
2024/04/17 10:06:03;;;;;;;0.88;0.38;;;;;;;7.21;100.00;101198.97;5490331;26;20451;-39
2024/04/17 10:08:33;;;;;;;1.00;0.35;;;;;;;7.25;100.00;101194.84;5490790;26;20458;-45
2024/04/17 10:10:59;;;;;;;1.35;0.50;;;;;;;7.50;100.00;101189.75;5491025;26;19994;-38
2024/04/17 10:13:25;;;;;;;1.08;0.57;;;;;;;7.57;100.00;101193.31;5490808;26;20364;-39
2024/04/17 10:15:51;;;;;;;0.65;0.40;;;;;;;7.62;100.00;101190.03;5490514;26;19998;-38
2024/04/17 10:18:17;;;;;;;1.05;0.57;;;;;;;7.71;100.00;101200.41;5490129;26;20001;-39
2024/04/17 10:20:43;;;;;;;0.80;0.40;;;;;;;7.82;100.00;101196.28;5491076;26;20348;-38
2024/04/17 10:23:09;;;;;;;0.70;0.40;;;;;;;7.91;100.00;101194.22;5490486;26;19994;-39
2024/04/17 10:25:46;;;;;;;0.30;0.20;;;;;;;7.94;100.00;101200.00;5490658;26;19994;-39
2024/04/17 10:28:14;;;;;;;1.08;0.43;;;;;;;8.22;100.00;101193.63;5490374;26;20001;-39
2024/04/17 10:30:40;;;;;;;0.88;0.30;;;;;;;8.38;100.00;101198.63;5490967;26;20022;-39
2024/04/17 10:33:27;;;;;;;1.38;0.30;;;;;;;8.84;100.00;101192.34;5489970;26;19998;-39
2024/04/17 10:35:54;;;;;;;0.43;0.20;;;;;;;9.05;100.00;101187.72;5490562;26;20067;-38
2024/04/17 10:38:26;;;;;;;1.23;0.40;;;;;;;9.08;100.00;101180.06;5490391;26;20010;-39
2024/04/17 10:41:02;;;;;;;0.77;0.50;;;;;;;9.21;100.00;101171.88;5490869;26;19998;-39
2024/04/17 10:43:30;;;;;;;1.60;0.50;;;;;;;9.47;100.00;101189.03;5490494;26;20524;-38
2024/04/17 10:45:56;;;;;;;1.55;0.50;;;;;;;9.60;100.00;101172.72;5490740;26;20001;-39
2024/04/17 10:48:21;;;;;;;;;;;;;;;10.09;100.00;101173.84;5490367;26;20458;-39
2024/04/17 10:50:47;;;;;;;0.97;0.30;;;;;;;10.10;100.00;101175.50;5489832;26;20052;-39
2024/04/17 10:53:13;;;;;;;0.60;0.20;;;;;;;9.96;100.00;101158.59;5489801;26;20757;-39
2024/04/17 10:55:38;;;;;;;1.20;0.30;;;;;;;10.28;100.00;101169.38;5490390;26;20014;-39
2024/04/17 10:58:04;;;;;;;0.60;0.30;;;;;;;10.41;100.00;101161.16;5490297;26;20423;-39
2024/04/17 11:00:29;;;;;;;0.20;0.20;;;;;;;10.65;100.00;101164.06;5490810;26;20059;-39
2024/04/17 11:02:55;;;;;;;0.40;0.30;;;;;;;10.89;100.00;101165.88;5489855;26;20307;-39
2024/04/17 11:05:24;;;;;;;0.40;0.40;;;;;;;11.06;100.00;101161.50;5490715;26;20001;-39
2024/04/17 11:07:52;;;;;;;1.45;0.43;;;;;;;11.11;100.00;101160.00;5489967;26;20035;-38
2024/04/17 11:10:18;;;;;;;0.73;0.30;;;;;;;11.12;100.00;101170.59;5489978;26;20002;-38
2024/04/17 11:12:43;;;;;;;1.20;0.45;;;;;;;11.05;100.00;101167.97;5489970;26;20315;-38
2024/04/17 11:15:09;;;;;;;1.33;0.30;;;;;;;10.99;100.00;101166.19;5489874;26;19994;-39
2024/04/17 11:17:34;;;;;;;0.68;0.30;;;;;;;10.89;100.00;101152.34;5489568;26;19990;-39